sensor_id;sensor_type;location;lat;lon;timestamp;P1;durP1;ratioP1;P2;durP2;ratioP2
4527;SDS011;62320;51.520;6.818;2023-02-03T00:05:59;25.38;;;8.93;;
4527;SDS011;62320;51.520;6.818;2023-02-03T00:16:02;19.93;;;9.53;;
4527;SDS011;62320;51.520;6.818;2023-02-03T00:26:10;26.90;;;10.77;;
4527;SDS011;62320;51.520;6.818;2023-02-03T00:36:13;26.55;;;10.52;;
4527;SDS011;62320;51.520;6.818;2023-02-03T00:46:15;21.10;;;9.80;;
4527;SDS011;62320;51.520;6.818;2023-02-03T00:56:16;24.27;;;9.83;;
4527;SDS011;62320;51.520;6.818;2023-02-03T01:06:19;24.60;;;11.07;;
4527;SDS011;62320;51.520;6.818;2023-02-03T01:16:21;23.23;;;9.00;;
4527;SDS011;62320;51.520;6.818;2023-02-03T01:26:24;26.13;;;9.93;;
4527;SDS011;62320;51.520;6.818;2023-02-03T01:36:27;19.77;;;8.80;;
4527;SDS011;62320;51.520;6.818;2023-02-03T01:56:40;16.13;;;7.50;;
4527;SDS011;62320;51.520;6.818;2023-02-03T02:06:44;19.63;;;8.30;;
4527;SDS011;62320;51.520;6.818;2023-02-03T02:37:18;20.13;;;8.93;;
4527;SDS011;62320;51.520;6.818;2023-02-03T02:47:26;26.48;;;9.25;;
4527;SDS011;62320;51.520;6.818;2023-02-03T02:57:28;13.32;;;5.50;;
4527;SDS011;62320;51.520;6.818;2023-02-03T03:07:33;11.30;;;4.90;;
4527;SDS011;62320;51.520;6.818;2023-02-03T03:17:41;15.33;;;5.30;;
4527;SDS011;62320;51.520;6.818;2023-02-03T03:27:48;16.20;;;5.80;;
4527;SDS011;62320;51.520;6.818;2023-02-03T03:37:55;15.47;;;5.30;;
4527;SDS011;62320;51.520;6.818;2023-02-03T03:58:22;14.90;;;4.45;;
4527;SDS011;62320;51.520;6.818;2023-02-03T04:08:26;14.30;;;4.27;;
4527;SDS011;62320;51.520;6.818;2023-02-03T04:18:28;10.07;;;4.70;;
4527;SDS011;62320;51.520;6.818;2023-02-03T04:28:29;13.18;;;4.05;;
4527;SDS011;62320;51.520;6.818;2023-02-03T04:38:30;16.05;;;5.32;;
4527;SDS011;62320;51.520;6.818;2023-02-03T04:48:33;9.43;;;3.30;;
4527;SDS011;62320;51.520;6.818;2023-02-03T04:58:35;7.47;;;3.40;;
4527;SDS011;62320;51.520;6.818;2023-02-03T05:08:37;13.85;;;5.00;;
4527;SDS011;62320;51.520;6.818;2023-02-03T05:18:38;8.10;;;3.23;;
4527;SDS011;62320;51.520;6.818;2023-02-03T05:28:40;12.07;;;3.57;;
4527;SDS011;62320;51.520;6.818;2023-02-03T05:38:42;13.15;;;4.15;;
4527;SDS011;62320;51.520;6.818;2023-02-03T05:48:43;8.20;;;2.97;;
4527;SDS011;62320;51.520;6.818;2023-02-03T05:58:44;10.23;;;2.47;;
4527;SDS011;62320;51.520;6.818;2023-02-03T06:08:46;8.25;;;2.42;;
4527;SDS011;62320;51.520;6.818;2023-02-03T06:18:47;7.22;;;3.00;;
4527;SDS011;62320;51.520;6.818;2023-02-03T06:28:49;7.37;;;2.40;;
4527;SDS011;62320;51.520;6.818;2023-02-03T06:38:50;6.67;;;2.30;;
4527;SDS011;62320;51.520;6.818;2023-02-03T06:48:52;8.73;;;2.78;;
4527;SDS011;62320;51.520;6.818;2023-02-03T06:58:54;9.23;;;3.43;;
4527;SDS011;62320;51.520;6.818;2023-02-03T07:08:55;8.73;;;2.27;;
4527;SDS011;62320;51.520;6.818;2023-02-03T07:19:00;7.88;;;2.25;;
4527;SDS011;62320;51.520;6.818;2023-02-03T07:29:02;8.07;;;2.40;;
4527;SDS011;62320;51.520;6.818;2023-02-03T07:39:04;4.70;;;1.57;;
4527;SDS011;62320;51.520;6.818;2023-02-03T07:49:05;8.15;;;2.50;;
4527;SDS011;62320;51.520;6.818;2023-02-03T07:59:07;7.05;;;2.35;;
4527;SDS011;62320;51.520;6.818;2023-02-03T08:09:08;15.03;;;1.90;;
4527;SDS011;62320;51.520;6.818;2023-02-03T08:19:10;7.10;;;2.23;;
4527;SDS011;62320;51.520;6.818;2023-02-03T08:29:11;6.85;;;2.00;;
4527;SDS011;62320;51.520;6.818;2023-02-03T08:39:13;7.17;;;2.20;;
4527;SDS011;62320;51.520;6.818;2023-02-03T08:49:14;6.70;;;2.13;;
4527;SDS011;62320;51.520;6.818;2023-02-03T08:59:16;6.38;;;2.53;;
4527;SDS011;62320;51.520;6.818;2023-02-03T09:09:18;6.33;;;1.83;;
4527;SDS011;62320;51.520;6.818;2023-02-03T09:19:20;5.87;;;2.30;;
4527;SDS011;62320;51.520;6.818;2023-02-03T09:29:21;6.00;;;2.30;;
4527;SDS011;62320;51.520;6.818;2023-02-03T09:39:23;10.95;;;3.75;;
4527;SDS011;62320;51.520;6.818;2023-02-03T09:49:37;6.80;;;2.80;;
4527;SDS011;62320;51.520;6.818;2023-02-03T09:59:42;10.97;;;3.17;;
4527;SDS011;62320;51.520;6.818;2023-02-03T10:20:11;10.37;;;3.17;;
4527;SDS011;62320;51.520;6.818;2023-02-03T10:30:23;7.60;;;2.53;;
4527;SDS011;62320;51.520;6.818;2023-02-03T10:40:30;10.27;;;2.00;;
4527;SDS011;62320;51.520;6.818;2023-02-03T10:50:31;7.10;;;2.27;;
4527;SDS011;62320;51.520;6.818;2023-02-03T11:00:33;14.03;;;4.43;;
4527;SDS011;62320;51.520;6.818;2023-02-03T11:10:36;11.23;;;4.05;;
4527;SDS011;62320;51.520;6.818;2023-02-03T11:20:40;12.50;;;4.97;;
4527;SDS011;62320;51.520;6.818;2023-02-03T11:30:42;12.00;;;4.37;;
4527;SDS011;62320;51.520;6.818;2023-02-03T11:40:44;10.97;;;3.93;;
4527;SDS011;62320;51.520;6.818;2023-02-03T11:50:55;9.57;;;3.90;;
4527;SDS011;62320;51.520;6.818;2023-02-03T12:01:36;10.53;;;3.77;;
4527;SDS011;62320;51.520;6.818;2023-02-03T12:12:16;11.73;;;4.10;;
4527;SDS011;62320;51.520;6.818;2023-02-03T12:22:36;9.88;;;3.83;;
4527;SDS011;62320;51.520;6.818;2023-02-03T12:32:52;11.90;;;3.57;;
4527;SDS011;62320;51.520;6.818;2023-02-03T12:43:03;10.13;;;3.53;;
4527;SDS011;62320;51.520;6.818;2023-02-03T12:53:26;9.95;;;3.70;;
4527;SDS011;62320;51.520;6.818;2023-02-03T13:13:51;9.77;;;2.87;;
4527;SDS011;62320;51.520;6.818;2023-02-03T13:23:55;7.40;;;3.00;;
4527;SDS011;62320;51.520;6.818;2023-02-03T13:44:15;10.07;;;3.17;;
4527;SDS011;62320;51.520;6.818;2023-02-03T13:54:26;9.23;;;3.17;;
4527;SDS011;62320;51.520;6.818;2023-02-03T14:24:38;16.80;;;3.47;;
4527;SDS011;62320;51.520;6.818;2023-02-03T14:34:48;9.55;;;1.95;;
4527;SDS011;62320;51.520;6.818;2023-02-03T15:15:25;11.23;;;2.70;;
4527;SDS011;62320;51.520;6.818;2023-02-03T15:25:31;14.07;;;3.03;;
4527;SDS011;62320;51.520;6.818;2023-02-03T15:35:33;13.83;;;2.47;;
4527;SDS011;62320;51.520;6.818;2023-02-03T15:45:39;12.77;;;4.03;;
4527;SDS011;62320;51.520;6.818;2023-02-03T15:55:49;10.20;;;3.07;;
4527;SDS011;62320;51.520;6.818;2023-02-03T16:17:01;13.32;;;2.47;;
4527;SDS011;62320;51.520;6.818;2023-02-03T16:26:55;19.98;;;3.72;;
4527;SDS011;62320;51.520;6.818;2023-02-03T16:37:27;15.00;;;3.73;;
4527;SDS011;62320;51.520;6.818;2023-02-03T16:47:51;16.20;;;4.07;;
4527;SDS011;62320;51.520;6.818;2023-02-03T16:58:11;11.20;;;3.50;;
4527;SDS011;62320;51.520;6.818;2023-02-03T17:08:14;15.70;;;3.80;;
4527;SDS011;62320;51.520;6.818;2023-02-03T17:18:18;16.23;;;4.77;;
4527;SDS011;62320;51.520;6.818;2023-02-03T17:28:19;11.63;;;3.92;;
4527;SDS011;62320;51.520;6.818;2023-02-03T17:38:21;16.00;;;3.57;;
4527;SDS011;62320;51.520;6.818;2023-02-03T17:48:22;15.03;;;3.73;;
4527;SDS011;62320;51.520;6.818;2023-02-03T17:58:42;21.23;;;4.18;;
4527;SDS011;62320;51.520;6.818;2023-02-03T18:08:44;14.18;;;3.75;;
4527;SDS011;62320;51.520;6.818;2023-02-03T18:18:47;8.93;;;2.70;;
4527;SDS011;62320;51.520;6.818;2023-02-03T18:28:51;14.13;;;3.23;;
4527;SDS011;62320;51.520;6.818;2023-02-03T18:38:54;15.50;;;3.15;;
4527;SDS011;62320;51.520;6.818;2023-02-03T18:48:55;8.97;;;2.37;;
4527;SDS011;62320;51.520;6.818;2023-02-03T18:58:57;16.10;;;2.80;;
4527;SDS011;62320;51.520;6.818;2023-02-03T19:08:59;12.60;;;2.22;;
4527;SDS011;62320;51.520;6.818;2023-02-03T19:19:01;18.70;;;2.70;;
4527;SDS011;62320;51.520;6.818;2023-02-03T19:29:02;8.83;;;2.10;;
4527;SDS011;62320;51.520;6.818;2023-02-03T19:39:03;12.70;;;2.20;;
4527;SDS011;62320;51.520;6.818;2023-02-03T19:49:05;13.07;;;2.78;;
4527;SDS011;62320;51.520;6.818;2023-02-03T19:59:10;11.70;;;2.63;;
4527;SDS011;62320;51.520;6.818;2023-02-03T20:09:11;13.83;;;2.67;;
4527;SDS011;62320;51.520;6.818;2023-02-03T20:19:13;12.75;;;2.67;;
4527;SDS011;62320;51.520;6.818;2023-02-03T20:29:15;11.53;;;2.40;;
4527;SDS011;62320;51.520;6.818;2023-02-03T20:39:17;14.57;;;2.70;;
4527;SDS011;62320;51.520;6.818;2023-02-03T20:49:19;11.18;;;2.25;;
4527;SDS011;62320;51.520;6.818;2023-02-03T20:59:22;13.10;;;2.70;;
4527;SDS011;62320;51.520;6.818;2023-02-03T21:09:24;12.83;;;2.40;;
4527;SDS011;62320;51.520;6.818;2023-02-03T21:19:30;13.05;;;2.67;;
4527;SDS011;62320;51.520;6.818;2023-02-03T21:29:34;15.48;;;2.97;;
4527;SDS011;62320;51.520;6.818;2023-02-03T21:39:36;17.00;;;2.73;;
4527;SDS011;62320;51.520;6.818;2023-02-03T21:49:38;15.33;;;2.77;;
4527;SDS011;62320;51.520;6.818;2023-02-03T21:59:39;12.15;;;2.05;;
4527;SDS011;62320;51.520;6.818;2023-02-03T22:09:42;11.57;;;2.47;;
4527;SDS011;62320;51.520;6.818;2023-02-03T22:19:44;18.63;;;3.00;;
4527;SDS011;62320;51.520;6.818;2023-02-03T22:29:45;15.55;;;2.85;;
4527;SDS011;62320;51.520;6.818;2023-02-03T22:39:47;11.30;;;2.50;;
4527;SDS011;62320;51.520;6.818;2023-02-03T22:49:49;12.07;;;2.30;;
4527;SDS011;62320;51.520;6.818;2023-02-03T22:59:50;11.73;;;2.47;;
4527;SDS011;62320;51.520;6.818;2023-02-03T23:09:52;14.32;;;2.40;;
4527;SDS011;62320;51.520;6.818;2023-02-03T23:19:54;14.30;;;2.27;;
4527;SDS011;62320;51.520;6.818;2023-02-03T23:29:55;13.67;;;2.60;;
4527;SDS011;62320;51.520;6.818;2023-02-03T23:39:57;11.85;;;2.58;;
4527;SDS011;62320;51.520;6.818;2023-02-03T23:49:58;13.23;;;2.37;;
